Time;durP1;ratioP1;P1;durP2;ratioP2;P2;SDS_P1;SDS_P2;PMS_P1;PMS_P2;Temp;Humidity;BMP_temperature;BMP_pressure;BME280_temperature;BME280_humidity;BME280_pressure;Samples;Min_cycle;Max_cycle;Signal;HPM_P1;HPM_P2
2022/01/17 00:01:30;;;;;;;20.77;2.42;;;;;;;13.40;42.63;102327.69;4434667;32;20092;-71
2022/01/17 00:03:56;;;;;;;26.40;2.85;;;;;;;13.44;42.11;102325.66;4421416;32;20073;-71
2022/01/17 00:06:22;;;;;;;18.27;2.65;;;;;;;13.39;42.27;102326.09;4431893;32;20116;-71
2022/01/17 00:08:49;;;;;;;15.80;2.22;;;;;;;13.44;42.35;102334.94;4434549;32;20073;-71
2022/01/17 00:11:16;;;;;;;22.80;2.72;;;;;;;13.70;41.92;102347.56;4434398;32;20446;-70
2022/01/17 00:13:44;;;;;;;16.25;2.10;;;;;;;13.51;42.12;102339.72;4434120;32;20144;-70
2022/01/17 00:16:16;;;;;;;17.83;1.95;;;;;;;13.89;41.38;102338.47;4435247;32;20085;-69
2022/01/17 00:21:21;;;;;;;9.00;2.10;;;;;;;14.52;40.29;102385.00;3977876;32;15071907;-70
2022/01/17 00:23:49;;;;;;;18.67;2.65;;;;;;;14.52;40.29;102385.00;4434883;32;20063;-70
2022/01/17 00:26:14;;;;;;;16.67;1.83;;;;;;;14.21;40.61;102378.50;4430086;32;20359;-70
2022/01/17 00:28:40;;;;;;;24.08;2.25;;;;;;;13.98;40.78;102376.38;4431582;32;20037;-70
2022/01/17 00:31:07;;;;;;;13.95;1.75;;;;;;;13.91;40.97;102376.47;4429726;32;20099;-70
2022/01/17 00:33:34;;;;;;;12.88;1.77;;;;;;;13.88;41.14;102371.63;4432770;32;20030;-70
2022/01/17 00:35:59;;;;;;;13.50;2.65;;;;;;;13.99;41.25;102366.63;4434251;32;20383;-70
2022/01/17 00:38:25;;;;;;;14.45;1.83;;;;;;;13.87;41.51;102372.06;4433386;32;20371;-70
2022/01/17 00:40:51;;;;;;;17.20;2.35;;;;;;;13.89;41.44;102376.06;4432404;32;20372;-70
2022/01/17 00:43:17;;;;;;;17.48;2.10;;;;;;;13.77;42.12;102378.63;4432399;32;20140;-70
2022/01/17 00:45:44;;;;;;;8.20;1.62;;;;;;;13.94;41.76;102369.91;4430506;32;20037;-70
2022/01/17 00:48:11;;;;;;;15.73;1.80;;;;;;;13.86;41.94;102382.56;4435214;32;20522;-70
2022/01/17 00:50:39;;;;;;;10.75;1.85;;;;;;;13.78;42.14;102385.91;4430025;32;20065;-70
2022/01/17 00:53:07;;;;;;;12.45;1.92;;;;;;;13.99;41.82;102392.09;4433459;32;20135;-70
2022/01/17 00:55:35;;;;;;;21.70;3.42;;;;;;;14.13;41.58;102401.66;4431173;32;20554;-71
2022/01/17 00:58:01;;;;;;;14.82;2.05;;;;;;;13.99;41.87;102409.09;4431378;32;20375;-71
2022/01/17 01:00:27;;;;;;;12.68;2.03;;;;;;;13.85;42.10;102400.78;4431973;32;20033;-70
2022/01/17 01:02:54;;;;;;;16.27;1.98;;;;;;;13.62;42.74;102420.41;4432155;32;20126;-70
2022/01/17 01:05:20;;;;;;;10.90;1.92;;;;;;;13.85;42.30;102417.75;4430642;32;20430;-71
2022/01/17 01:07:45;;;;;;;9.45;1.67;;;;;;;13.84;42.14;102421.00;4433265;32;20101;-71
2022/01/17 01:10:13;;;;;;;14.30;1.60;;;;;;;13.84;42.18;102416.13;4429565;32;20037;-71
2022/01/17 01:12:40;;;;;;;18.15;2.10;;;;;;;14.08;42.01;102415.06;4432413;32;20049;-71
2022/01/17 01:15:12;;;;;;;11.60;1.62;;;;;;;14.06;41.94;102420.31;4433137;32;20033;-71
2022/01/17 01:17:55;;;;;;;10.70;1.42;;;;;;;14.00;41.94;102424.06;4433499;32;20103;-71
2022/01/17 01:28:47;;;;;;;9.60;1.85;;;;;;;14.14;41.79;102432.38;4428045;32;19980;-71
2022/01/17 01:31:18;;;;;;;16.83;1.55;;;;;;;13.92;42.10;102437.50;4425101;32;20108;-71
2022/01/17 01:33:51;;;;;;;12.43;1.52;;;;;;;13.70;42.57;102447.44;4427619;32;20108;-70
2022/01/17 01:36:25;;;;;;;9.57;1.80;;;;;;;13.84;42.27;102443.66;4430661;32;20033;-70
2022/01/17 01:38:51;;;;;;;18.35;2.55;;;;;;;13.68;42.70;102440.56;4428889;32;20061;-70
2022/01/17 01:41:17;;;;;;;15.68;2.37;;;;;;;13.76;42.47;102451.41;4431459;32;20102;-70
2022/01/17 01:43:43;;;;;;;15.55;2.05;;;;;;;13.68;42.64;102446.22;4430913;32;20064;-70
2022/01/17 01:46:10;;;;;;;9.60;1.40;;;;;;;13.65;42.66;102447.88;4428221;32;20059;-70
2022/01/17 01:48:36;;;;;;;14.30;1.50;;;;;;;13.49;42.93;102450.44;4432044;32;20089;-70
2022/01/17 01:51:03;;;;;;;14.52;1.62;;;;;;;13.61;42.76;102458.41;4425470;32;20206;-70
2022/01/17 01:53:29;;;;;;;9.20;1.62;;;;;;;13.50;42.90;102440.72;4427030;32;20721;-70
2022/01/17 01:55:57;;;;;;;16.30;1.58;;;;;;;13.51;42.87;102450.03;4430061;32;20198;-70
2022/01/17 01:58:25;;;;;;;11.07;1.52;;;;;;;13.42;43.27;102456.16;4429263;32;20144;-70
2022/01/17 02:00:51;;;;;;;14.95;1.95;;;;;;;13.71;42.81;102453.87;4431311;32;20517;-70
2022/01/17 02:03:17;;;;;;;11.20;1.58;;;;;;;13.70;42.66;102463.59;4426596;32;20451;-71
2022/01/17 02:05:43;;;;;;;10.48;1.60;;;;;;;13.57;42.65;102462.50;4428670;32;20088;-71
2022/01/17 02:08:11;;;;;;;13.45;2.20;;;;;;;13.49;42.87;102458.94;4429240;32;20123;-70
2022/01/17 02:10:40;;;;;;;9.50;1.52;;;;;;;13.65;42.71;102464.84;4427456;32;20053;-70
2022/01/17 02:13:06;;;;;;;11.98;2.10;;;;;;;13.44;42.97;102459.38;4424722;32;20408;-70
2022/01/17 02:15:33;;;;;;;10.07;1.75;;;;;;;13.50;42.82;102469.00;4432390;32;20061;-71
2022/01/17 02:17:59;;;;;;;14.98;1.48;;;;;;;13.36;43.05;102474.00;4432743;32;20185;-71
2022/01/17 02:20:39;;;;;;;9.45;1.40;;;;;;;13.38;43.00;102474.37;4427918;32;20088;-71
2022/01/17 02:23:06;;;;;;;11.30;1.55;;;;;;;13.53;43.01;102471.00;4429106;32;20104;-71
2022/01/17 02:25:33;;;;;;;15.50;1.60;;;;;;;13.36;43.16;102471.16;4428348;32;20089;-70
2022/01/17 02:27:59;;;;;;;12.10;1.35;;;;;;;13.44;43.01;102469.91;4427698;32;20119;-70
2022/01/17 02:30:26;;;;;;;16.50;1.80;;;;;;;13.41;43.04;102480.00;4426022;32;20390;-71
2022/01/17 02:32:53;;;;;;;14.48;1.87;;;;;;;13.36;43.51;102480.47;4428266;32;20042;-70
2022/01/17 02:35:23;;;;;;;14.20;1.80;;;;;;;13.41;43.09;102471.50;4418643;32;20529;-70
2022/01/17 02:37:49;;;;;;;16.40;1.70;;;;;;;13.45;43.26;102477.16;4418393;32;20038;-70
2022/01/17 02:40:18;;;;;;;11.55;1.70;;;;;;;13.23;43.56;102476.50;4416310;32;20142;-71
2022/01/17 02:42:50;;;;;;;13.90;1.65;;;;;;;13.34;43.49;102474.41;4417372;32;20031;-71
2022/01/17 02:45:20;;;;;;;11.05;1.15;;;;;;;13.49;43.43;102483.56;4421318;32;20077;-70
2022/01/17 02:47:46;;;;;;;10.40;1.50;;;;;;;13.25;43.61;102496.69;4421441;32;20068;-70
2022/01/17 02:50:12;;;;;;;12.88;1.37;;;;;;;13.24;43.57;102482.97;4418850;32;20707;-70
2022/01/17 02:52:38;;;;;;;5.87;1.62;;;;;;;13.27;43.55;102494.25;4417137;32;20093;-70
2022/01/17 02:55:05;;;;;;;14.77;1.70;;;;;;;13.16;44.03;102485.03;4418242;32;20033;-70
2022/01/17 02:57:32;;;;;;;17.42;2.58;;;;;;;12.87;45.04;102489.25;4419603;32;20477;-70
2022/01/17 02:59:58;;;;;;;13.93;1.80;;;;;;;13.14;44.64;102490.31;4415937;32;20097;-70
2022/01/17 03:02:24;;;;;;;16.05;1.60;;;;;;;12.97;44.81;102491.19;4415255;32;20128;-70
2022/01/17 03:04:50;;;;;;;5.65;1.17;;;;;;;13.02;44.99;102493.63;4418950;32;20077;-70
2022/01/17 03:07:16;;;;;;;7.47;1.60;;;;;;;13.33;44.49;102498.25;4418597;32;20033;-70
2022/01/17 03:09:56;;;;;;;17.73;1.58;;;;;;;13.49;44.17;102501.34;4420283;32;20038;-70
2022/01/17 03:12:23;;;;;;;21.45;3.33;;;;;;;13.34;44.35;102507.53;4412723;32;20056;-70
2022/01/17 03:14:50;;;;;;;14.73;1.27;;;;;;;13.46;44.17;102505.03;4416391;32;20127;-70
2022/01/17 03:17:18;;;;;;;10.32;1.42;;;;;;;13.56;43.86;102509.78;4423203;32;20333;-70
2022/01/17 03:19:44;;;;;;;11.80;1.30;;;;;;;13.60;43.69;102502.06;4418691;32;20494;-70
2022/01/17 03:22:14;;;;;;;14.35;1.10;;;;;;;13.82;43.05;102506.34;4419011;32;20059;-70
2022/01/17 03:24:40;;;;;;;10.13;1.15;;;;;;;13.92;42.74;102496.94;4416889;32;20073;-70
2022/01/17 03:27:06;;;;;;;8.52;1.30;;;;;;;13.60;43.50;102501.28;4415172;32;20042;-70
2022/01/17 03:29:32;;;;;;;10.07;1.35;;;;;;;13.40;43.70;102505.88;4418534;32;20430;-70
2022/01/17 03:31:57;;;;;;;7.90;0.90;;;;;;;13.53;43.21;102504.19;4413226;32;20085;-70
2022/01/17 03:34:23;;;;;;;11.05;1.27;;;;;;;13.64;42.92;102494.37;4419163;32;20422;-70
2022/01/17 03:36:49;;;;;;;14.15;1.27;;;;;;;13.49;43.06;102506.19;4419928;32;20250;-70
2022/01/17 03:39:15;;;;;;;14.27;1.30;;;;;;;13.52;43.44;102499.72;4417223;32;20064;-70
2022/01/17 03:41:41;;;;;;;10.82;1.73;;;;;;;13.62;43.18;102502.47;4417562;32;20050;-70
2022/01/17 03:44:08;;;;;;;11.93;1.60;;;;;;;13.64;43.22;102507.69;4417629;32;20468;-69
2022/01/17 03:46:35;;;;;;;11.85;1.42;;;;;;;13.74;43.16;102510.44;4419258;32;20085;-69
2022/01/17 03:49:01;;;;;;;11.48;1.55;;;;;;;13.67;43.29;102509.69;4420669;32;20072;-69
2022/01/17 03:51:27;;;;;;;9.93;1.10;;;;;;;13.47;43.55;102511.50;4415495;32;20066;-69
2022/01/17 03:53:52;;;;;;;9.70;1.12;;;;;;;13.66;43.24;102511.72;4413824;32;20080;-70
2022/01/17 03:56:18;;;;;;;10.48;1.30;;;;;;;13.74;42.94;102515.28;4417005;32;20387;-70
2022/01/17 03:58:45;;;;;;;8.73;0.95;;;;;;;13.76;42.83;102515.69;4418410;32;20034;-70
2022/01/17 04:01:11;;;;;;;11.02;1.45;;;;;;;14.04;42.44;102515.41;4414454;32;20069;-70
2022/01/17 04:03:38;;;;;;;12.93;0.90;;;;;;;13.77;42.84;102522.94;4419090;32;20077;-70
2022/01/17 04:06:04;;;;;;;8.43;0.88;;;;;;;13.96;42.29;102516.69;4417472;32;20065;-70
2022/01/17 04:08:31;;;;;;;8.73;1.00;;;;;;;14.04;42.27;102516.22;4417937;32;20077;-70
2022/01/17 04:10:56;;;;;;;5.87;0.90;;;;;;;14.11;41.82;102517.38;4415522;32;20438;-70
2022/01/17 04:13:23;;;;;;;11.88;1.25;;;;;;;13.98;42.04;102506.56;4415305;32;20145;-70
2022/01/17 04:15:57;;;;;;;5.70;1.00;;;;;;;13.87;41.84;102505.88;4414980;32;20072;-70
2022/01/17 04:18:31;;;;;;;8.80;1.27;;;;;;;14.04;41.50;102502.06;4416157;32;20097;-70
2022/01/17 04:21:01;;;;;;;7.97;0.88;;;;;;;13.94;41.38;102511.44;4417266;32;20121;-69
2022/01/17 04:23:27;;;;;;;8.40;0.90;;;;;;;13.82;41.36;102497.84;4420414;32;20140;-70
2022/01/17 04:25:54;;;;;;;6.62;0.75;;;;;;;13.94;41.11;102505.00;4417850;32;20091;-70
2022/01/17 04:28:19;;;;;;;5.70;0.95;;;;;;;13.88;41.08;102504.66;4416049;32;20399;-70
2022/01/17 04:30:45;;;;;;;4.12;1.35;;;;;;;13.76;41.48;102510.03;4417570;32;20221;-70
2022/01/17 04:33:11;;;;;;;4.70;0.70;;;;;;;13.69;41.51;102496.72;4417538;32;20067;-70
2022/01/17 04:35:37;;;;;;;9.25;1.58;;;;;;;13.65;41.36;102504.44;4419556;32;20114;-70
2022/01/17 04:38:07;;;;;;;6.95;1.33;;;;;;;13.73;41.53;102503.19;4417498;32;20305;-70
2022/01/17 04:40:36;;;;;;;8.68;1.30;;;;;;;13.77;41.57;102512.44;4417327;32;20030;-70
2022/01/17 04:43:06;;;;;;;4.43;1.10;;;;;;;13.55;41.67;102528.00;4416338;32;20122;-70
2022/01/17 04:45:32;;;;;;;5.60;1.08;;;;;;;13.53;42.01;102533.25;4417078;32;20674;-70
2022/01/17 04:47:59;;;;;;;9.65;1.10;;;;;;;13.39;42.47;102541.84;4417110;32;20101;-70
2022/01/17 04:50:27;;;;;;;7.57;0.88;;;;;;;13.27;42.73;102536.69;4417952;32;20442;-70
2022/01/17 04:52:55;;;;;;;5.32;1.00;;;;;;;13.28;42.61;102551.59;4419433;32;20073;-70
2022/01/17 04:55:23;;;;;;;7.43;0.60;;;;;;;13.29;41.96;102542.69;4411618;32;20134;-70
2022/01/17 04:57:49;;;;;;;8.27;0.62;;;;;;;13.25;41.99;102546.78;4416528;32;20034;-70
2022/01/17 05:00:18;;;;;;;4.18;0.70;;;;;;;13.46;41.17;102558.75;4418046;32;20466;-70
2022/01/17 05:02:44;;;;;;;4.47;0.80;;;;;;;14.12;39.96;102559.44;4413295;32;20069;-70
2022/01/17 05:05:10;;;;;;;6.53;0.80;;;;;;;14.02;39.98;102565.97;4418718;32;20123;-70
2022/01/17 05:07:39;;;;;;;3.95;1.08;;;;;;;14.04;40.15;102572.84;4418045;32;20069;-70
2022/01/17 05:10:09;;;;;;;5.15;0.75;;;;;;;14.06;40.09;102576.03;4417587;32;20406;-70
2022/01/17 05:12:35;;;;;;;6.80;1.20;;;;;;;14.17;39.81;102575.16;4414787;32;20065;-70
2022/01/17 05:15:01;;;;;;;3.97;1.23;;;;;;;13.87;40.36;102581.50;4417509;32;20411;-70
2022/01/17 05:20:05;;;;;;;6.50;1.10;;;;;;;14.31;39.78;102580.69;3975811;32;15024287;-71
2022/01/17 05:22:33;;;;;;;6.50;0.93;;;;;;;14.31;39.78;102580.69;4431359;32;20464;-71
2022/01/17 05:25:01;;;;;;;7.12;0.80;;;;;;;13.93;40.31;102580.62;4426199;32;20529;-71
2022/01/17 05:27:27;;;;;;;8.75;1.10;;;;;;;13.87;40.56;102576.63;4430235;32;20553;-71
2022/01/17 05:29:53;;;;;;;8.00;1.12;;;;;;;13.69;41.06;102573.13;4433648;32;20086;-71
2022/01/17 05:32:20;;;;;;;9.10;0.95;;;;;;;13.76;40.81;102570.25;4428033;32;20052;-71
2022/01/17 05:34:46;;;;;;;7.85;1.33;;;;;;;13.63;40.93;102569.13;4430521;32;20054;-71
2022/01/17 05:37:13;;;;;;;7.07;0.73;;;;;;;13.85;40.97;102570.59;4434068;32;20681;-71
2022/01/17 05:39:40;;;;;;;6.37;0.88;;;;;;;13.55;41.39;102573.25;4431635;32;20349;-71
2022/01/17 05:42:07;;;;;;;10.90;1.27;;;;;;;13.68;41.32;102580.00;4430405;32;20032;-71
2022/01/17 05:44:33;;;;;;;13.68;1.12;;;;;;;13.94;40.64;102582.22;4430845;32;20164;-71
2022/01/17 05:46:59;;;;;;;11.88;4.20;;;;;;;13.92;40.56;102583.88;4433895;32;20034;-71
2022/01/17 05:49:25;;;;;;;5.97;1.10;;;;;;;13.76;40.77;102572.28;4426282;32;20063;-71
2022/01/17 05:51:51;;;;;;;3.25;0.80;;;;;;;13.60;41.02;102575.63;4432720;32;20081;-71
2022/01/17 05:54:17;;;;;;;7.97;1.42;;;;;;;13.55;41.23;102567.59;4421909;32;20106;-71
2022/01/17 05:56:43;;;;;;;3.97;0.93;;;;;;;13.36;41.37;102568.13;4423932;32;20796;-71
2022/01/17 05:59:10;;;;;;;8.65;1.20;;;;;;;13.43;41.51;102558.78;4431702;32;20465;-71
2022/01/17 06:01:39;;;;;;;9.02;1.30;;;;;;;13.32;41.58;102558.84;4435002;32;20579;-71
2022/01/17 06:04:05;;;;;;;7.32;1.40;;;;;;;13.04;42.01;102564.66;4429672;32;20727;-71
2022/01/17 06:06:31;;;;;;;3.85;1.17;;;;;;;13.03;41.94;102573.56;4431662;32;20034;-71
2022/01/17 06:08:58;;;;;;;3.87;1.20;;;;;;;12.80;42.24;102573.25;4434826;32;20081;-71
2022/01/17 06:11:24;;;;;;;6.85;1.08;;;;;;;12.69;42.48;102587.41;4426309;32;20073;-71
2022/01/17 06:13:49;;;;;;;6.47;1.40;;;;;;;12.56;42.67;102586.22;4433780;32;20064;-71
2022/01/17 06:16:15;;;;;;;6.62;1.55;;;;;;;12.52;42.66;102582.59;4426337;32;20030;-71
2022/01/17 06:18:41;;;;;;;8.38;1.62;;;;;;;12.38;43.10;102596.75;4431164;32;20081;-71
2022/01/17 06:21:06;;;;;;;7.40;1.55;;;;;;;12.41;43.17;102593.13;4428960;32;20515;-71
2022/01/17 06:23:32;;;;;;;11.50;1.27;;;;;;;12.21;43.74;102608.09;4430402;32;20098;-71
2022/01/17 06:25:58;;;;;;;12.10;1.92;;;;;;;12.17;43.84;102622.19;4435097;32;20037;-71
2022/01/17 06:28:23;;;;;;;6.80;2.08;;;;;;;12.18;43.60;102623.00;4426350;32;20065;-71
2022/01/17 06:30:50;;;;;;;12.77;1.50;;;;;;;12.30;43.58;102617.75;4427421;32;20029;-71
2022/01/17 06:33:16;;;;;;;6.30;1.52;;;;;;;12.24;43.70;102613.72;4413363;32;20394;-70
2022/01/17 06:35:42;;;;;;;9.90;2.08;;;;;;;12.24;43.83;102599.59;4423049;32;20060;-70
2022/01/17 06:38:07;;;;;;;8.07;1.83;;;;;;;12.05;44.05;102611.31;4421786;32;20070;-70
2022/01/17 06:40:33;;;;;;;9.35;1.87;;;;;;;11.96;44.10;102608.91;4421187;32;20037;-70
2022/01/17 06:42:59;;;;;;;6.32;2.03;;;;;;;11.79;44.68;102620.97;4420287;32;20136;-70
2022/01/17 06:45:25;;;;;;;7.18;1.90;;;;;;;11.76;44.10;102601.25;4421465;32;20038;-70
2022/01/17 06:47:50;;;;;;;9.18;1.90;;;;;;;11.88;44.09;102623.41;4422431;32;20021;-70
2022/01/17 06:50:17;;;;;;;7.18;2.08;;;;;;;11.65;44.79;102631.44;4420762;32;20069;-70
2022/01/17 06:52:44;;;;;;;6.68;1.90;;;;;;;11.49;45.17;102647.88;4419015;32;20039;-70
2022/01/17 06:55:10;;;;;;;10.25;2.95;;;;;;;11.55;45.08;102680.13;4422671;32;20033;-71
2022/01/17 06:57:36;;;;;;;10.80;3.03;;;;;;;11.45;45.31;102676.06;4421409;32;20033;-70
2022/01/17 07:00:07;;;;;;;22.65;3.83;;;;;;;11.56;44.97;102676.91;4424652;32;20068;-70
2022/01/17 07:02:32;;;;;;;10.07;3.20;;;;;;;11.81;44.70;102672.16;4420812;32;20843;-70
2022/01/17 07:04:58;;;;;;;13.93;3.15;;;;;;;11.36;45.39;102655.12;4422586;32;20042;-70
2022/01/17 07:07:24;;;;;;;8.20;2.05;;;;;;;11.44;45.32;102639.81;4422005;32;20140;-70
2022/01/17 07:09:51;;;;;;;11.50;2.42;;;;;;;11.50;45.28;102639.03;4418059;32;20080;-70
2022/01/17 07:12:17;;;;;;;10.57;2.33;;;;;;;11.49;45.00;102637.44;4417746;32;20169;-71
2022/01/17 07:14:42;;;;;;;9.07;1.80;;;;;;;11.21;45.54;102664.72;4422040;32;20034;-70
2022/01/17 07:17:09;;;;;;;5.32;1.70;;;;;;;11.27;45.39;102663.13;4423628;32;20146;-69
2022/01/17 07:19:36;;;;;;;9.57;2.20;;;;;;;11.43;45.66;102661.59;4420933;32;20052;-71
2022/01/17 07:22:03;;;;;;;4.97;1.30;;;;;;;11.87;45.98;102664.91;4420707;32;20069;-71
2022/01/17 07:24:29;;;;;;;7.97;2.05;;;;;;;12.23;45.70;102667.75;4423131;32;20084;-71
2022/01/17 07:26:55;;;;;;;13.90;1.55;;;;;;;12.35;45.20;102690.75;4416321;32;20515;-71
2022/01/17 07:29:21;;;;;;;11.43;1.92;;;;;;;12.46;45.25;102685.91;4420621;32;20510;-71
2022/01/17 07:31:47;;;;;;;11.05;1.70;;;;;;;12.87;44.49;102672.91;4408951;32;20089;-72
2022/01/17 07:34:13;;;;;;;9.73;1.92;;;;;;;13.17;43.96;102681.75;4416145;32;20134;-71
2022/01/17 07:36:38;;;;;;;11.95;1.75;;;;;;;13.13;43.58;102666.78;4412605;32;20097;-71
2022/01/17 07:39:05;;;;;;;7.05;2.00;;;;;;;13.34;43.22;102675.19;4416165;32;20077;-71
2022/01/17 07:41:30;;;;;;;14.48;2.25;;;;;;;13.42;43.16;102673.13;4404469;32;20045;-71
2022/01/17 07:43:56;;;;;;;8.27;1.65;;;;;;;13.22;43.61;102670.00;4410235;32;20029;-71
2022/01/17 07:46:25;;;;;;;10.25;2.33;;;;;;;13.25;43.57;102686.12;4415097;32;20489;-71
2022/01/17 07:51:34;;;;;;;15.65;3.20;;;;;;;13.97;42.00;102685.34;3980583;32;15023300;-71
2022/01/17 07:54:00;;;;;;;12.20;2.90;;;;;;;13.80;42.21;102684.22;4426576;32;20067;-71
2022/01/17 07:56:26;;;;;;;11.20;2.85;;;;;;;13.73;42.12;102687.13;4428244;32;20072;-70
2022/01/17 07:58:52;;;;;;;13.80;3.87;;;;;;;13.63;42.40;102690.78;4423711;32;20037;-72
2022/01/17 08:01:18;;;;;;;44.05;24.10;;;;;;;13.60;42.55;102702.94;4416472;32;20421;-71
2022/01/17 08:03:44;;;;;;;18.15;6.47;;;;;;;13.54;42.43;102715.09;4421217;32;20080;-71
2022/01/17 08:06:09;;;;;;;15.20;5.32;;;;;;;13.34;42.30;102709.13;4423280;32;20073;-71
2022/01/17 08:08:35;;;;;;;23.05;7.28;;;;;;;13.43;42.33;102695.34;4424185;32;20097;-71
2022/01/17 08:11:01;;;;;;;17.85;5.53;;;;;;;13.39;42.37;102699.41;4418830;32;20045;-71
2022/01/17 08:13:27;;;;;;;19.55;4.87;;;;;;;13.34;42.70;102708.31;4416354;32;20081;-71
2022/01/17 08:15:52;;;;;;;13.55;4.65;;;;;;;13.21;42.72;102707.16;4419874;32;20676;-71
2022/01/17 08:18:18;;;;;;;17.08;4.78;;;;;;;13.25;42.56;102710.78;4425277;32;20065;-71
2022/01/17 08:20:44;;;;;;;15.85;5.03;;;;;;;13.29;42.64;102712.38;4417693;32;20081;-71
2022/01/17 08:23:10;;;;;;;10.45;3.15;;;;;;;13.22;42.84;102717.25;4418990;32;20075;-70
2022/01/17 08:25:37;;;;;;;14.65;5.03;;;;;;;13.05;43.30;102704.81;4422810;32;20196;-71
2022/01/17 08:28:03;;;;;;;15.07;4.53;;;;;;;13.13;43.13;102708.41;4423691;32;20049;-71
2022/01/17 08:30:30;;;;;;;14.85;4.62;;;;;;;13.12;43.14;102715.25;4417424;32;20041;-71
2022/01/17 08:32:56;;;;;;;14.70;4.05;;;;;;;12.94;42.62;102715.28;4424275;32;20049;-71
2022/01/17 08:35:22;;;;;;;14.27;4.60;;;;;;;12.93;42.57;102727.00;4421617;32;20092;-71
2022/01/17 08:37:48;;;;;;;14.40;3.95;;;;;;;12.85;42.86;102731.03;4423029;32;20077;-71
2022/01/17 08:40:15;;;;;;;16.87;4.30;;;;;;;12.82;42.90;102740.34;4419856;32;20061;-70
2022/01/17 08:42:41;;;;;;;22.40;5.62;;;;;;;12.97;42.81;102727.78;4422049;32;20413;-70
2022/01/17 08:45:10;;;;;;;11.55;4.75;;;;;;;12.70;42.85;102732.28;4422669;32;20176;-71
2022/01/17 08:47:35;;;;;;;11.82;4.15;;;;;;;12.70;42.97;102732.28;4422959;32;20138;-71
2022/01/17 08:50:04;;;;;;;14.13;4.87;;;;;;;12.59;43.21;102740.78;4423694;32;20088;-70
2022/01/17 08:52:30;;;;;;;19.40;6.50;;;;;;;12.64;43.45;102740.34;4419209;32;20107;-71
2022/01/17 08:54:57;;;;;;;12.45;5.00;;;;;;;12.59;43.29;102735.13;4421549;32;20041;-71
2022/01/17 08:57:24;;;;;;;13.18;5.68;;;;;;;12.57;43.75;102743.19;4420553;32;20077;-70
2022/01/17 08:59:50;;;;;;;22.87;6.85;;;;;;;12.40;44.18;102749.66;4427856;32;20037;-70
2022/01/17 09:02:16;;;;;;;17.37;5.80;;;;;;;12.46;43.93;102748.06;4415849;32;20059;-70
2022/01/17 09:04:43;;;;;;;14.10;5.05;;;;;;;12.51;43.70;102746.81;4415540;32;20081;-70
2022/01/17 09:07:10;;;;;;;16.70;5.72;;;;;;;12.56;43.60;102752.88;4417949;32;20145;-70
2022/01/17 09:09:38;;;;;;;20.77;7.22;;;;;;;12.80;43.36;102746.41;4414091;32;20097;-70
2022/01/17 09:12:08;;;;;;;17.62;6.55;;;;;;;12.83;43.62;102756.09;4414625;32;20118;-70
2022/01/17 09:14:34;;;;;;;24.17;6.62;;;;;;;12.69;44.21;102753.25;4412889;32;20045;-70
2022/01/17 09:17:01;;;;;;;20.62;5.82;;;;;;;12.76;43.88;102756.09;4413129;32;20041;-69
2022/01/17 09:19:28;;;;;;;16.33;5.12;;;;;;;12.89;43.51;102751.66;4413936;32;20731;-69
2022/01/17 09:21:54;;;;;;;18.45;5.40;;;;;;;13.10;43.47;102745.97;4412863;32;20076;-70
2022/01/17 09:24:20;;;;;;;19.00;5.37;;;;;;;13.06;43.37;102748.81;4416566;32;20046;-70
2022/01/17 09:26:46;;;;;;;13.48;5.03;;;;;;;13.10;43.40;102751.63;4414914;32;20041;-70
2022/01/17 09:29:12;;;;;;;17.62;4.65;;;;;;;13.08;43.28;102752.03;4411645;32;20161;-70
2022/01/17 09:31:38;;;;;;;19.15;5.12;;;;;;;13.41;42.87;102753.56;4410817;32;20086;-70
2022/01/17 09:34:04;;;;;;;22.58;5.50;;;;;;;13.75;42.42;102751.78;4414454;32;20144;-70
2022/01/17 09:36:33;;;;;;;18.10;5.55;;;;;;;14.09;41.69;102756.41;4419658;32;20251;-69
2022/01/17 09:39:02;;;;;;;18.98;6.78;;;;;;;14.63;40.84;102760.50;4414247;32;20632;-70
2022/01/17 09:41:28;;;;;;;17.37;6.00;;;;;;;14.99;39.89;102770.28;4413004;32;20083;-70
2022/01/17 09:43:54;;;;;;;19.83;6.68;;;;;;;15.15;39.82;102767.69;4411191;32;20084;-70
2022/01/17 09:46:23;;;;;;;17.73;5.97;;;;;;;15.41;38.98;102777.56;4413677;32;20435;-70
2022/01/17 09:48:51;;;;;;;21.83;5.80;;;;;;;15.76;38.62;102782.81;4416070;32;20146;-70
2022/01/17 09:51:38;;;;;;;11.57;5.10;;;;;;;16.24;37.71;102791.06;4410615;32;20116;-70
2022/01/17 09:54:06;;;;;;;17.75;5.80;;;;;;;16.56;36.74;102797.06;4414382;32;20092;-69
2022/01/17 09:56:33;;;;;;;19.10;6.93;;;;;;;16.97;36.35;102792.72;4413360;32;20551;-70
2022/01/17 09:59:02;;;;;;;19.17;6.28;;;;;;;17.31;35.67;102792.50;4414681;32;20045;-69
2022/01/17 10:01:28;;;;;;;20.35;6.47;;;;;;;17.55;35.57;102788.41;4409632;32;20522;-70
2022/01/17 10:03:57;;;;;;;21.27;7.65;;;;;;;17.66;35.08;102784.09;4413731;32;20113;-70
2022/01/17 10:06:24;;;;;;;15.63;8.15;;;;;;;18.15;34.02;102770.78;4413657;32;20084;-70
2022/01/17 10:09:09;;;;;;;12.85;6.00;;;;;;;18.43;33.78;102786.44;4413788;32;20168;-70
2022/01/17 10:11:35;;;;;;;17.07;6.23;;;;;;;18.95;33.34;102793.69;4413802;32;20054;-70
2022/01/17 10:14:01;;;;;;;14.10;5.15;;;;;;;18.99;33.21;102797.22;4411871;32;20996;-70
2022/01/17 10:16:29;;;;;;;15.13;5.45;;;;;;;19.43;32.53;102801.38;4414051;32;20630;-71
2022/01/17 10:21:38;;;;;;;15.90;6.32;;;;;;;20.95;30.32;102833.41;3964529;31;15706944;-72
2022/01/17 10:34:56;;;;;;;20.30;5.47;;;;;;;21.45;29.17;102864.00;3971216;32;15025057;-72
2022/01/17 10:37:25;;;;;;;19.27;5.28;;;;;;;21.45;29.17;102864.00;4424968;32;20978;-72
2022/01/17 10:40:02;;;;;;;13.75;5.03;;;;;;;21.72;29.35;102854.84;4422568;32;20498;-72
2022/01/17 10:42:39;;;;;;;14.10;5.80;;;;;;;22.15;28.57;102860.63;4425379;32;20080;-71
2022/01/17 10:45:09;;;;;;;14.02;6.20;;;;;;;22.40;28.57;102872.69;4426453;32;20134;-72
2022/01/17 10:47:39;;;;;;;16.60;6.70;;;;;;;22.60;28.17;102853.06;4424877;32;20076;-71
2022/01/17 10:52:57;;;;;;;24.80;7.78;;;;;;;23.66;27.11;102906.03;3972471;32;15025763;-72
2022/01/17 10:55:25;;;;;;;26.27;7.40;;;;;;;23.66;27.11;102906.03;4424477;32;20536;-72
2022/01/17 10:57:54;;;;;;;20.85;7.72;;;;;;;23.17;27.49;102908.97;4419932;32;20603;-73
2022/01/17 11:00:27;;;;;;;18.17;7.53;;;;;;;23.11;27.42;102899.38;4422040;32;20347;-70
2022/01/17 11:02:55;;;;;;;6.65;2.47;;;;;;;23.08;27.72;102915.47;4422621;32;20081;-72
2022/01/17 11:05:22;;;;;;;6.65;1.52;;;;;;;22.72;27.32;102921.06;4425121;32;20037;-71
2022/01/17 11:07:52;;;;;;;8.43;1.45;;;;;;;22.79;27.17;102906.41;4419702;32;20070;-72
2022/01/17 11:10:22;;;;;;;5.93;1.27;;;;;;;23.12;26.86;102895.22;4423778;32;20065;-72
2022/01/17 11:12:51;;;;;;;9.35;1.65;;;;;;;23.57;26.33;102895.34;4421193;32;20073;-72
2022/01/17 11:15:19;;;;;;;8.48;1.75;;;;;;;23.78;26.13;102887.81;4424498;32;20033;-72
2022/01/17 11:17:50;;;;;;;4.85;1.10;;;;;;;23.88;25.83;102884.47;4416992;32;20077;-73
2022/01/17 11:20:17;;;;;;;4.72;1.50;;;;;;;23.91;25.98;102889.28;4422675;32;20069;-71
2022/01/17 11:22:46;;;;;;;4.12;0.90;;;;;;;24.03;25.83;102893.28;4422611;32;20084;-74
2022/01/17 11:25:16;;;;;;;5.50;1.10;;;;;;;23.33;26.26;102894.34;4426797;32;20063;-74
2022/01/17 11:27:42;;;;;;;3.85;0.85;;;;;;;24.01;25.88;102888.00;4425825;32;20034;-71
2022/01/17 11:30:08;;;;;;;3.65;1.40;;;;;;;23.83;25.43;102873.59;4421541;32;20449;-71
2022/01/17 11:32:34;;;;;;;5.30;1.60;;;;;;;24.08;25.81;102886.88;4419591;32;20030;-71
2022/01/17 11:35:02;;;;;;;5.28;1.20;;;;;;;24.77;24.92;102897.13;4422637;32;20290;-71
2022/01/17 11:37:33;;;;;;;8.57;2.22;;;;;;;25.54;24.27;102903.91;4417026;32;20829;-70
2022/01/17 11:40:00;;;;;;;11.38;3.12;;;;;;;25.74;23.48;102895.41;4420642;32;20074;-72
2022/01/17 11:42:29;;;;;;;8.63;2.12;;;;;;;26.01;23.29;102906.75;4420499;32;20119;-71
2022/01/17 11:44:56;;;;;;;8.57;2.33;;;;;;;26.39;22.82;102918.25;4413337;32;20124;-71
2022/01/17 11:55:46;;;;;;;9.05;1.77;;;;;;;26.37;23.49;102917.94;3970221;32;15026323;-73
2022/01/17 12:03:54;;;;;;;7.30;2.17;;;;;;;25.07;24.25;102916.16;3966572;32;15021375;-72
2022/01/17 12:14:54;;;;;;;4.28;1.30;;;;;;;24.77;24.99;102928.81;3981687;31;15016835;-71